sensor_id;sensor_type;location;lat;lon;timestamp;temperature;humidity
73133;DHT22;61320;52.008;4.530;2023-07-13T00:00:29;19.09;73.70
73133;DHT22;61320;52.008;4.530;2023-07-13T00:02:56;19.10;73.51
73133;DHT22;61320;52.008;4.530;2023-07-13T00:05:22;19.03;73.70
73133;DHT22;61320;52.008;4.530;2023-07-13T00:07:49;19.02;73.56
73133;DHT22;61320;52.008;4.530;2023-07-13T00:10:14;18.99;73.61
73133;DHT22;61320;52.008;4.530;2023-07-13T00:12:41;18.98;73.36
73133;DHT22;61320;52.008;4.530;2023-07-13T00:15:14;18.98;73.28
73133;DHT22;61320;52.008;4.530;2023-07-13T00:17:42;18.96;73.22
73133;DHT22;61320;52.008;4.530;2023-07-13T00:20:11;18.99;73.12
73133;DHT22;61320;52.008;4.530;2023-07-13T00:22:36;19.00;72.79
73133;DHT22;61320;52.008;4.530;2023-07-13T00:25:02;19.03;72.25
73133;DHT22;61320;52.008;4.530;2023-07-13T00:27:28;19.03;72.44
73133;DHT22;61320;52.008;4.530;2023-07-13T00:29:58;19.08;72.13
73133;DHT22;61320;52.008;4.530;2023-07-13T00:32:24;19.06;71.83
73133;DHT22;61320;52.008;4.530;2023-07-13T00:34:53;19.00;71.39
73133;DHT22;61320;52.008;4.530;2023-07-13T00:37:18;18.99;71.63
73133;DHT22;61320;52.008;4.530;2023-07-13T00:39:44;18.96;71.53
73133;DHT22;61320;52.008;4.530;2023-07-13T00:42:10;19.02;71.24
73133;DHT22;61320;52.008;4.530;2023-07-13T00:44:37;19.02;71.34
73133;DHT22;61320;52.008;4.530;2023-07-13T00:47:04;19.02;71.35
73133;DHT22;61320;52.008;4.530;2023-07-13T00:49:32;19.05;71.32
73133;DHT22;61320;52.008;4.530;2023-07-13T00:52:06;19.08;71.39
73133;DHT22;61320;52.008;4.530;2023-07-13T00:54:36;19.08;71.31
73133;DHT22;61320;52.008;4.530;2023-07-13T00:57:08;19.05;71.35
73133;DHT22;61320;52.008;4.530;2023-07-13T00:59:36;19.05;71.36
73133;DHT22;61320;52.008;4.530;2023-07-13T01:02:03;19.08;71.48
73133;DHT22;61320;52.008;4.530;2023-07-13T01:04:29;19.10;71.32
73133;DHT22;61320;52.008;4.530;2023-07-13T01:06:57;19.08;71.36
73133;DHT22;61320;52.008;4.530;2023-07-13T01:09:23;19.08;71.45
73133;DHT22;61320;52.008;4.530;2023-07-13T01:11:49;19.05;71.59
73133;DHT22;61320;52.008;4.530;2023-07-13T01:14:15;19.03;71.68
73133;DHT22;61320;52.008;4.530;2023-07-13T01:16:44;18.99;71.89
73133;DHT22;61320;52.008;4.530;2023-07-13T01:22:02;18.89;71.99
73133;DHT22;61320;52.008;4.530;2023-07-13T01:24:28;18.91;71.80
73133;DHT22;61320;52.008;4.530;2023-07-13T01:26:54;18.89;71.38
73133;DHT22;61320;52.008;4.530;2023-07-13T01:29:20;18.91;71.02
73133;DHT22;61320;52.008;4.530;2023-07-13T01:31:46;18.87;70.56
73133;DHT22;61320;52.008;4.530;2023-07-13T01:34:12;18.84;70.51
73133;DHT22;61320;52.008;4.530;2023-07-13T01:36:38;18.78;70.41
73133;DHT22;61320;52.008;4.530;2023-07-13T01:39:04;18.75;70.24
73133;DHT22;61320;52.008;4.530;2023-07-13T01:41:30;18.73;70.37
73133;DHT22;61320;52.008;4.530;2023-07-13T01:43:55;18.68;70.14
73133;DHT22;61320;52.008;4.530;2023-07-13T01:46:21;18.65;70.34
73133;DHT22;61320;52.008;4.530;2023-07-13T01:48:46;18.65;70.10
73133;DHT22;61320;52.008;4.530;2023-07-13T01:51:12;18.61;69.69
73133;DHT22;61320;52.008;4.530;2023-07-13T01:53:38;18.62;69.57
73133;DHT22;61320;52.008;4.530;2023-07-13T01:56:04;18.55;69.18
73133;DHT22;61320;52.008;4.530;2023-07-13T01:58:30;18.51;69.32
73133;DHT22;61320;52.008;4.530;2023-07-13T02:00:55;18.47;69.37
73133;DHT22;61320;52.008;4.530;2023-07-13T02:03:21;18.47;69.16
73133;DHT22;61320;52.008;4.530;2023-07-13T02:05:46;18.44;69.29
73133;DHT22;61320;52.008;4.530;2023-07-13T02:08:12;18.43;69.20
73133;DHT22;61320;52.008;4.530;2023-07-13T02:10:37;18.40;69.34
73133;DHT22;61320;52.008;4.530;2023-07-13T02:13:06;18.43;69.39
73133;DHT22;61320;52.008;4.530;2023-07-13T02:15:32;18.45;69.44
73133;DHT22;61320;52.008;4.530;2023-07-13T02:17:57;18.40;69.65
73133;DHT22;61320;52.008;4.530;2023-07-13T02:20:24;18.37;69.93
73133;DHT22;61320;52.008;4.530;2023-07-13T02:22:50;18.40;70.10
73133;DHT22;61320;52.008;4.530;2023-07-13T02:25:15;18.43;70.25
73133;DHT22;61320;52.008;4.530;2023-07-13T02:27:41;18.43;70.54
73133;DHT22;61320;52.008;4.530;2023-07-13T02:30:07;18.38;70.93
73133;DHT22;61320;52.008;4.530;2023-07-13T02:32:33;18.40;71.08
73133;DHT22;61320;52.008;4.530;2023-07-13T02:34:59;18.40;71.20
73133;DHT22;61320;52.008;4.530;2023-07-13T02:37:24;18.40;71.39
73133;DHT22;61320;52.008;4.530;2023-07-13T02:39:50;18.43;71.47
73133;DHT22;61320;52.008;4.530;2023-07-13T02:42:16;18.43;71.82
73133;DHT22;61320;52.008;4.530;2023-07-13T02:44:41;18.44;71.92
73133;DHT22;61320;52.008;4.530;2023-07-13T02:47:07;18.47;72.17
73133;DHT22;61320;52.008;4.530;2023-07-13T02:49:32;18.51;72.55
73133;DHT22;61320;52.008;4.530;2023-07-13T02:51:58;18.52;72.74
73133;DHT22;61320;52.008;4.530;2023-07-13T02:54:23;18.57;72.77
73133;DHT22;61320;52.008;4.530;2023-07-13T02:56:49;18.57;72.89
73133;DHT22;61320;52.008;4.530;2023-07-13T02:59:14;18.57;73.12
73133;DHT22;61320;52.008;4.530;2023-07-13T03:01:40;18.59;73.32
73133;DHT22;61320;52.008;4.530;2023-07-13T03:04:06;18.58;73.65
73133;DHT22;61320;52.008;4.530;2023-07-13T03:06:32;18.61;73.70
73133;DHT22;61320;52.008;4.530;2023-07-13T03:08:58;18.59;73.85
73133;DHT22;61320;52.008;4.530;2023-07-13T03:11:25;18.61;74.07
73133;DHT22;61320;52.008;4.530;2023-07-13T03:13:52;18.54;74.47
73133;DHT22;61320;52.008;4.530;2023-07-13T03:16:17;18.54;74.59
73133;DHT22;61320;52.008;4.530;2023-07-13T03:18:43;18.55;74.72
73133;DHT22;61320;52.008;4.530;2023-07-13T03:21:09;18.57;74.88
73133;DHT22;61320;52.008;4.530;2023-07-13T03:23:35;18.52;75.07
73133;DHT22;61320;52.008;4.530;2023-07-13T03:26:08;18.51;75.27
73133;DHT22;61320;52.008;4.530;2023-07-13T03:28:34;18.52;75.32
73133;DHT22;61320;52.008;4.530;2023-07-13T03:31:03;18.52;75.45
73133;DHT22;61320;52.008;4.530;2023-07-13T03:33:29;18.50;75.49
73133;DHT22;61320;52.008;4.530;2023-07-13T03:35:55;18.52;75.57
73133;DHT22;61320;52.008;4.530;2023-07-13T03:38:21;18.54;75.50
73133;DHT22;61320;52.008;4.530;2023-07-13T03:40:46;18.57;75.51
73133;DHT22;61320;52.008;4.530;2023-07-13T03:43:12;18.59;75.30
73133;DHT22;61320;52.008;4.530;2023-07-13T03:45:38;18.58;75.46
73133;DHT22;61320;52.008;4.530;2023-07-13T03:48:04;18.55;75.59
73133;DHT22;61320;52.008;4.530;2023-07-13T03:50:30;18.55;75.61
73133;DHT22;61320;52.008;4.530;2023-07-13T03:52:57;18.55;75.61
73133;DHT22;61320;52.008;4.530;2023-07-13T03:55:23;18.57;75.63
73133;DHT22;61320;52.008;4.530;2023-07-13T03:57:58;18.61;75.57
73133;DHT22;61320;52.008;4.530;2023-07-13T04:00:23;18.64;75.46
73133;DHT22;61320;52.008;4.530;2023-07-13T04:02:50;18.65;75.29
73133;DHT22;61320;52.008;4.530;2023-07-13T04:05:16;18.65;75.36
73133;DHT22;61320;52.008;4.530;2023-07-13T04:07:41;18.65;75.41
73133;DHT22;61320;52.008;4.530;2023-07-13T04:10:07;18.68;75.40
73133;DHT22;61320;52.008;4.530;2023-07-13T04:14:58;18.68;75.24
73133;DHT22;61320;52.008;4.530;2023-07-13T04:17:24;18.64;75.38
73133;DHT22;61320;52.008;4.530;2023-07-13T04:19:49;18.65;75.41
73133;DHT22;61320;52.008;4.530;2023-07-13T04:22:15;18.71;75.25
73133;DHT22;61320;52.008;4.530;2023-07-13T04:24:40;18.72;75.22
73133;DHT22;61320;52.008;4.530;2023-07-13T04:27:06;18.75;75.07
73133;DHT22;61320;52.008;4.530;2023-07-13T04:29:32;18.73;75.19
73133;DHT22;61320;52.008;4.530;2023-07-13T04:31:58;18.84;74.82
73133;DHT22;61320;52.008;4.530;2023-07-13T04:34:23;18.84;74.84
73133;DHT22;61320;52.008;4.530;2023-07-13T04:36:50;18.85;74.67
73133;DHT22;61320;52.008;4.530;2023-07-13T04:39:16;18.91;74.59
73133;DHT22;61320;52.008;4.530;2023-07-13T04:41:41;18.92;74.40
73133;DHT22;61320;52.008;4.530;2023-07-13T04:44:07;18.92;74.36
73133;DHT22;61320;52.008;4.530;2023-07-13T04:46:33;18.94;74.24
73133;DHT22;61320;52.008;4.530;2023-07-13T04:48:58;18.99;74.06
73133;DHT22;61320;52.008;4.530;2023-07-13T04:51:24;18.99;73.96
73133;DHT22;61320;52.008;4.530;2023-07-13T04:53:50;19.02;73.99
73133;DHT22;61320;52.008;4.530;2023-07-13T04:56:15;19.08;73.65
73133;DHT22;61320;52.008;4.530;2023-07-13T04:58:41;19.15;73.49
73133;DHT22;61320;52.008;4.530;2023-07-13T05:01:07;19.22;73.28
73133;DHT22;61320;52.008;4.530;2023-07-13T05:03:34;19.30;72.93
73133;DHT22;61320;52.008;4.530;2023-07-13T05:06:02;19.36;72.84
73133;DHT22;61320;52.008;4.530;2023-07-13T05:08:28;19.37;72.81
73133;DHT22;61320;52.008;4.530;2023-07-13T05:10:53;19.41;72.33
73133;DHT22;61320;52.008;4.530;2023-07-13T05:13:20;19.45;72.36
73133;DHT22;61320;52.008;4.530;2023-07-13T05:15:48;19.50;72.22
73133;DHT22;61320;52.008;4.530;2023-07-13T05:18:20;19.57;71.52
73133;DHT22;61320;52.008;4.530;2023-07-13T05:20:45;19.60;71.67
73133;DHT22;61320;52.008;4.530;2023-07-13T05:23:11;19.67;71.21
73133;DHT22;61320;52.008;4.530;2023-07-13T05:25:36;19.64;70.23
73133;DHT22;61320;52.008;4.530;2023-07-13T05:28:02;19.66;70.39
73133;DHT22;61320;52.008;4.530;2023-07-13T05:30:27;19.66;70.57
73133;DHT22;61320;52.008;4.530;2023-07-13T05:32:53;19.68;70.73
73133;DHT22;61320;52.008;4.530;2023-07-13T05:35:18;19.73;70.61
73133;DHT22;61320;52.008;4.530;2023-07-13T05:37:44;19.77;70.55
73133;DHT22;61320;52.008;4.530;2023-07-13T05:40:09;19.78;70.35
73133;DHT22;61320;52.008;4.530;2023-07-13T05:42:35;19.81;70.21
73133;DHT22;61320;52.008;4.530;2023-07-13T05:45:02;19.85;70.11
73133;DHT22;61320;52.008;4.530;2023-07-13T05:47:27;19.85;70.03
73133;DHT22;61320;52.008;4.530;2023-07-13T05:49:53;19.87;69.90
73133;DHT22;61320;52.008;4.530;2023-07-13T05:52:19;19.89;69.47
73133;DHT22;61320;52.008;4.530;2023-07-13T05:54:44;19.94;69.60
73133;DHT22;61320;52.008;4.530;2023-07-13T05:57:10;19.95;69.53
73133;DHT22;61320;52.008;4.530;2023-07-13T05:59:35;19.99;68.58
73133;DHT22;61320;52.008;4.530;2023-07-13T06:02:01;19.98;69.03
73133;DHT22;61320;52.008;4.530;2023-07-13T06:04:26;19.95;69.88
73133;DHT22;61320;52.008;4.530;2023-07-13T06:06:52;19.88;70.26
73133;DHT22;61320;52.008;4.530;2023-07-13T06:09:18;19.79;71.42
73133;DHT22;61320;52.008;4.530;2023-07-13T06:11:43;19.77;71.46
73133;DHT22;61320;52.008;4.530;2023-07-13T06:14:09;19.75;71.73
73133;DHT22;61320;52.008;4.530;2023-07-13T06:16:34;19.74;71.82
73133;DHT22;61320;52.008;4.530;2023-07-13T06:19:01;19.74;71.25
73133;DHT22;61320;52.008;4.530;2023-07-13T06:21:26;19.71;71.07
73133;DHT22;61320;52.008;4.530;2023-07-13T06:23:52;19.71;70.57
73133;DHT22;61320;52.008;4.530;2023-07-13T06:26:20;19.64;71.03
73133;DHT22;61320;52.008;4.530;2023-07-13T06:28:46;19.63;70.62
73133;DHT22;61320;52.008;4.530;2023-07-13T06:31:14;19.61;71.07
73133;DHT22;61320;52.008;4.530;2023-07-13T06:33:39;19.63;70.86
73133;DHT22;61320;52.008;4.530;2023-07-13T06:36:06;19.67;70.93
73133;DHT22;61320;52.008;4.530;2023-07-13T06:38:33;19.73;70.75
73133;DHT22;61320;52.008;4.530;2023-07-13T06:40:59;19.75;71.09
73133;DHT22;61320;52.008;4.530;2023-07-13T06:43:25;19.74;71.07
73133;DHT22;61320;52.008;4.530;2023-07-13T06:45:53;19.78;70.79
73133;DHT22;61320;52.008;4.530;2023-07-13T06:48:19;19.81;69.80
73133;DHT22;61320;52.008;4.530;2023-07-13T06:50:47;19.79;69.57
73133;DHT22;61320;52.008;4.530;2023-07-13T06:53:13;19.82;70.21
73133;DHT22;61320;52.008;4.530;2023-07-13T06:55:39;19.94;69.77
73133;DHT22;61320;52.008;4.530;2023-07-13T06:58:06;19.99;69.10
73133;DHT22;61320;52.008;4.530;2023-07-13T07:00:31;20.04;68.72
73133;DHT22;61320;52.008;4.530;2023-07-13T07:02:57;20.05;67.64
73133;DHT22;61320;52.008;4.530;2023-07-13T07:05:23;20.04;67.44
73133;DHT22;61320;52.008;4.530;2023-07-13T07:12:44;20.24;68.32
73133;DHT22;61320;52.008;4.530;2023-07-13T07:15:10;20.29;67.55
73133;DHT22;61320;52.008;4.530;2023-07-13T07:17:36;20.39;67.28
73133;DHT22;61320;52.008;4.530;2023-07-13T07:20:02;20.52;66.39
73133;DHT22;61320;52.008;4.530;2023-07-13T07:22:29;20.57;66.72
73133;DHT22;61320;52.008;4.530;2023-07-13T07:24:56;20.59;66.57
73133;DHT22;61320;52.008;4.530;2023-07-13T07:27:21;20.59;66.38
73133;DHT22;61320;52.008;4.530;2023-07-13T07:29:47;20.47;65.49
73133;DHT22;61320;52.008;4.530;2023-07-13T07:32:12;20.32;66.69
73133;DHT22;61320;52.008;4.530;2023-07-13T07:34:38;20.33;66.73
73133;DHT22;61320;52.008;4.530;2023-07-13T07:37:04;20.39;66.70
73133;DHT22;61320;52.008;4.530;2023-07-13T07:39:30;20.47;66.86
73133;DHT22;61320;52.008;4.530;2023-07-13T07:41:56;20.59;66.34
73133;DHT22;61320;52.008;4.530;2023-07-13T07:44:21;20.64;65.76
73133;DHT22;61320;52.008;4.530;2023-07-13T07:46:47;20.77;65.90
73133;DHT22;61320;52.008;4.530;2023-07-13T07:49:13;20.85;65.50
73133;DHT22;61320;52.008;4.530;2023-07-13T07:51:39;20.90;64.98
73133;DHT22;61320;52.008;4.530;2023-07-13T07:54:05;20.88;64.29
73133;DHT22;61320;52.008;4.530;2023-07-13T07:56:31;20.81;64.35
73133;DHT22;61320;52.008;4.530;2023-07-13T07:58:57;20.74;64.76
73133;DHT22;61320;52.008;4.530;2023-07-13T08:01:22;20.62;65.04
73133;DHT22;61320;52.008;4.530;2023-07-13T08:03:48;20.62;65.48
73133;DHT22;61320;52.008;4.530;2023-07-13T08:06:14;20.67;65.30
73133;DHT22;61320;52.008;4.530;2023-07-13T08:08:40;20.67;64.54
73133;DHT22;61320;52.008;4.530;2023-07-13T08:11:08;20.52;64.52
73133;DHT22;61320;52.008;4.530;2023-07-13T08:13:34;20.52;64.60
73133;DHT22;61320;52.008;4.530;2023-07-13T08:16:00;20.57;65.21
73133;DHT22;61320;52.008;4.530;2023-07-13T08:18:26;20.74;64.74
73133;DHT22;61320;52.008;4.530;2023-07-13T08:20:53;20.90;64.11
73133;DHT22;61320;52.008;4.530;2023-07-13T08:23:21;21.04;62.53
73133;DHT22;61320;52.008;4.530;2023-07-13T08:25:53;21.11;62.70
73133;DHT22;61320;52.008;4.530;2023-07-13T08:28:20;21.15;62.84
73133;DHT22;61320;52.008;4.530;2023-07-13T08:30:47;21.11;62.02
73133;DHT22;61320;52.008;4.530;2023-07-13T08:33:18;21.03;62.08
73133;DHT22;61320;52.008;4.530;2023-07-13T08:35:47;21.03;63.36
73133;DHT22;61320;52.008;4.530;2023-07-13T08:38:15;21.01;63.39
73133;DHT22;61320;52.008;4.530;2023-07-13T08:40:41;21.00;62.94
73133;DHT22;61320;52.008;4.530;2023-07-13T08:43:15;21.00;63.50
73133;DHT22;61320;52.008;4.530;2023-07-13T08:45:48;21.00;66.02
73133;DHT22;61320;52.008;4.530;2023-07-13T08:48:45;20.83;67.93
73133;DHT22;61320;52.008;4.530;2023-07-13T08:51:35;20.62;67.61
73133;DHT22;61320;52.008;4.530;2023-07-13T08:54:05;20.40;69.49
73133;DHT22;61320;52.008;4.530;2023-07-13T08:56:34;20.30;69.28
73133;DHT22;61320;52.008;4.530;2023-07-13T08:59:11;20.18;69.14
73133;DHT22;61320;52.008;4.530;2023-07-13T09:01:51;20.08;69.23
73133;DHT22;61320;52.008;4.530;2023-07-13T09:04:26;20.06;69.31
73133;DHT22;61320;52.008;4.530;2023-07-13T09:07:07;20.11;69.50
73133;DHT22;61320;52.008;4.530;2023-07-13T09:12:40;20.21;68.16
73133;DHT22;61320;52.008;4.530;2023-07-13T09:15:29;20.26;67.66
73133;DHT22;61320;52.008;4.530;2023-07-13T09:18:08;20.22;66.74
73133;DHT22;61320;52.008;4.530;2023-07-13T09:20:51;20.19;67.12
73133;DHT22;61320;52.008;4.530;2023-07-13T09:23:21;20.18;67.17
73133;DHT22;61320;52.008;4.530;2023-07-13T09:25:54;20.19;67.31
73133;DHT22;61320;52.008;4.530;2023-07-13T09:28:35;20.16;67.46
73133;DHT22;61320;52.008;4.530;2023-07-13T09:31:15;20.15;67.23
73133;DHT22;61320;52.008;4.530;2023-07-13T09:33:41;19.94;65.22
73133;DHT22;61320;52.008;4.530;2023-07-13T09:36:25;19.87;65.81
73133;DHT22;61320;52.008;4.530;2023-07-13T09:42:21;19.81;67.47
73133;DHT22;61320;52.008;4.530;2023-07-13T09:47:18;19.88;67.97
73133;DHT22;61320;52.008;4.530;2023-07-13T09:49:45;19.89;67.63
73133;DHT22;61320;52.008;4.530;2023-07-13T09:52:14;19.95;67.73
73133;DHT22;61320;52.008;4.530;2023-07-13T09:54:45;20.01;67.90
73133;DHT22;61320;52.008;4.530;2023-07-13T09:57:23;20.22;67.89
73133;DHT22;61320;52.008;4.530;2023-07-13T09:59:51;20.50;66.93
73133;DHT22;61320;52.008;4.530;2023-07-13T10:04:59;20.93;65.19
73133;DHT22;61320;52.008;4.530;2023-07-13T10:07:25;21.10;65.51
73133;DHT22;61320;52.008;4.530;2023-07-13T10:09:55;21.32;64.71
73133;DHT22;61320;52.008;4.530;2023-07-13T10:12:22;21.49;64.03
73133;DHT22;61320;52.008;4.530;2023-07-13T10:14:55;21.72;62.69
73133;DHT22;61320;52.008;4.530;2023-07-13T10:17:32;22.03;61.07
73133;DHT22;61320;52.008;4.530;2023-07-13T10:20:05;22.27;60.15
73133;DHT22;61320;52.008;4.530;2023-07-13T10:25:16;22.64;59.45
73133;DHT22;61320;52.008;4.530;2023-07-13T10:27:44;22.48;58.98
73133;DHT22;61320;52.008;4.530;2023-07-13T10:32:46;22.03;60.14
73133;DHT22;61320;52.008;4.530;2023-07-13T10:35:15;21.89;58.91
73133;DHT22;61320;52.008;4.530;2023-07-13T10:38:06;21.66;59.75
73133;DHT22;61320;52.008;4.530;2023-07-13T10:40:40;22.00;59.42
73133;DHT22;61320;52.008;4.530;2023-07-13T10:43:41;23.47;56.16
73133;DHT22;61320;52.008;4.530;2023-07-13T10:48:39;24.35;52.90
73133;DHT22;61320;52.008;4.530;2023-07-13T10:51:06;24.00;52.42
73133;DHT22;61320;52.008;4.530;2023-07-13T10:56:05;24.95;47.37
73133;DHT22;61320;52.008;4.530;2023-07-13T10:58:42;25.38;47.55
73133;DHT22;61320;52.008;4.530;2023-07-13T11:01:09;26.33;47.18
73133;DHT22;61320;52.008;4.530;2023-07-13T11:04:00;26.92;43.33
73133;DHT22;61320;52.008;4.530;2023-07-13T11:21:26;29.45;40.90
73133;DHT22;61320;52.008;4.530;2023-07-13T11:31:40;30.16;37.66
73133;DHT22;61320;52.008;4.530;2023-07-13T11:34:14;30.03;38.89
73133;DHT22;61320;52.008;4.530;2023-07-13T11:36:44;29.99;37.24
73133;DHT22;61320;52.008;4.530;2023-07-13T11:39:29;29.75;37.44
73133;DHT22;61320;52.008;4.530;2023-07-13T11:42:00;29.38;38.44
73133;DHT22;61320;52.008;4.530;2023-07-13T11:44:29;28.89;39.16
73133;DHT22;61320;52.008;4.530;2023-07-13T11:47:00;28.60;39.80
73133;DHT22;61320;52.008;4.530;2023-07-13T11:52:04;28.02;41.51
73133;DHT22;61320;52.008;4.530;2023-07-13T11:54:33;27.71;42.27
73133;DHT22;61320;52.008;4.530;2023-07-13T11:57:18;27.61;42.93
73133;DHT22;61320;52.008;4.530;2023-07-13T11:59:51;27.49;42.67
73133;DHT22;61320;52.008;4.530;2023-07-13T12:02:35;27.03;43.71
73133;DHT22;61320;52.008;4.530;2023-07-13T12:05:03;26.79;45.50
73133;DHT22;61320;52.008;4.530;2023-07-13T12:07:33;26.58;44.46
73133;DHT22;61320;52.008;4.530;2023-07-13T12:10:16;26.23;45.98
73133;DHT22;61320;52.008;4.530;2023-07-13T12:12:52;26.16;45.34
73133;DHT22;61320;52.008;4.530;2023-07-13T12:15:19;25.78;47.10
73133;DHT22;61320;52.008;4.530;2023-07-13T12:17:46;25.39;45.15
73133;DHT22;61320;52.008;4.530;2023-07-13T12:20:23;25.07;47.65
73133;DHT22;61320;52.008;4.530;2023-07-13T12:27:50;24.88;49.96
73133;DHT22;61320;52.008;4.530;2023-07-13T12:30:31;24.67;49.20
73133;DHT22;61320;52.008;4.530;2023-07-13T12:33:12;24.49;50.03
73133;DHT22;61320;52.008;4.530;2023-07-13T12:35:49;24.37;50.82
73133;DHT22;61320;52.008;4.530;2023-07-13T12:38:16;24.43;51.75
73133;DHT22;61320;52.008;4.530;2023-07-13T12:40:42;24.59;50.51
73133;DHT22;61320;52.008;4.530;2023-07-13T12:43:13;24.76;51.90
73133;DHT22;61320;52.008;4.530;2023-07-13T12:45:39;24.88;50.68
73133;DHT22;61320;52.008;4.530;2023-07-13T12:48:20;24.94;49.26
73133;DHT22;61320;52.008;4.530;2023-07-13T12:50:48;24.82;49.44
73133;DHT22;61320;52.008;4.530;2023-07-13T12:53:22;24.77;49.71
73133;DHT22;61320;52.008;4.530;2023-07-13T12:55:53;24.67;49.92
73133;DHT22;61320;52.008;4.530;2023-07-13T13:00:56;24.72;50.69
73133;DHT22;61320;52.008;4.530;2023-07-13T13:03:38;24.76;47.91
73133;DHT22;61320;52.008;4.530;2023-07-13T13:06:20;24.67;48.71
73133;DHT22;61320;52.008;4.530;2023-07-13T13:08:59;24.52;47.98
73133;DHT22;61320;52.008;4.530;2023-07-13T13:11:29;24.52;48.98
73133;DHT22;61320;52.008;4.530;2023-07-13T13:13:55;24.53;49.45
73133;DHT22;61320;52.008;4.530;2023-07-13T13:16:30;24.59;48.77
73133;DHT22;61320;52.008;4.530;2023-07-13T13:19:13;24.60;47.41
73133;DHT22;61320;52.008;4.530;2023-07-13T13:21:39;24.49;48.17
73133;DHT22;61320;52.008;4.530;2023-07-13T13:24:17;24.40;47.33
73133;DHT22;61320;52.008;4.530;2023-07-13T13:26:44;24.32;49.59
73133;DHT22;61320;52.008;4.530;2023-07-13T13:29:24;24.19;47.08
73133;DHT22;61320;52.008;4.530;2023-07-13T13:31:50;24.15;47.25
73133;DHT22;61320;52.008;4.530;2023-07-13T13:34:19;24.26;48.47
73133;DHT22;61320;52.008;4.530;2023-07-13T13:36:47;24.39;48.93
73133;DHT22;61320;52.008;4.530;2023-07-13T13:41:44;24.43;47.43
73133;DHT22;61320;52.008;4.530;2023-07-13T13:44:10;24.45;50.64
73133;DHT22;61320;52.008;4.530;2023-07-13T13:46:36;24.52;50.25
73133;DHT22;61320;52.008;4.530;2023-07-13T13:49:02;24.60;48.29
73133;DHT22;61320;52.008;4.530;2023-07-13T13:51:28;24.53;48.82
73133;DHT22;61320;52.008;4.530;2023-07-13T13:53:54;24.62;48.79
73133;DHT22;61320;52.008;4.530;2023-07-13T13:56:21;24.73;49.67
73133;DHT22;61320;52.008;4.530;2023-07-13T13:58:47;24.88;49.38
73133;DHT22;61320;52.008;4.530;2023-07-13T14:01:17;24.94;49.55
73133;DHT22;61320;52.008;4.530;2023-07-13T14:03:44;25.07;48.80
73133;DHT22;61320;52.008;4.530;2023-07-13T14:06:13;25.06;48.05
73133;DHT22;61320;52.008;4.530;2023-07-13T14:08:39;24.97;50.21
73133;DHT22;61320;52.008;4.530;2023-07-13T14:11:05;25.00;49.48
73133;DHT22;61320;52.008;4.530;2023-07-13T14:13:37;25.04;48.72
73133;DHT22;61320;52.008;4.530;2023-07-13T14:16:16;25.07;49.47
73133;DHT22;61320;52.008;4.530;2023-07-13T14:18:46;25.07;48.37
73133;DHT22;61320;52.008;4.530;2023-07-13T14:21:17;25.13;47.96
73133;DHT22;61320;52.008;4.530;2023-07-13T14:26:13;25.28;49.71
73133;DHT22;61320;52.008;4.530;2023-07-13T14:28:45;25.14;47.59
73133;DHT22;61320;52.008;4.530;2023-07-13T14:31:14;24.94;49.50
73133;DHT22;61320;52.008;4.530;2023-07-13T14:33:40;24.88;49.82
73133;DHT22;61320;52.008;4.530;2023-07-13T14:38:46;24.65;50.73
73133;DHT22;61320;52.008;4.530;2023-07-13T14:41:12;24.60;49.89
73133;DHT22;61320;52.008;4.530;2023-07-13T14:43:37;24.45;51.07
73133;DHT22;61320;52.008;4.530;2023-07-13T14:46:03;24.40;52.06
73133;DHT22;61320;52.008;4.530;2023-07-13T14:48:30;24.45;53.16
73133;DHT22;61320;52.008;4.530;2023-07-13T14:50:58;24.49;51.66
73133;DHT22;61320;52.008;4.530;2023-07-13T14:53:26;24.37;51.58
73133;DHT22;61320;52.008;4.530;2023-07-13T14:55:55;24.29;52.99
73133;DHT22;61320;52.008;4.530;2023-07-13T14:58:20;24.37;51.92
73133;DHT22;61320;52.008;4.530;2023-07-13T15:00:46;24.33;50.70
73133;DHT22;61320;52.008;4.530;2023-07-13T15:03:22;24.16;52.20
73133;DHT22;61320;52.008;4.530;2023-07-13T15:05:49;24.16;52.85
73133;DHT22;61320;52.008;4.530;2023-07-13T15:08:15;24.28;53.19
73133;DHT22;61320;52.008;4.530;2023-07-13T15:15:46;24.18;52.92
73133;DHT22;61320;52.008;4.530;2023-07-13T15:30:35;23.68;53.55
73133;DHT22;61320;52.008;4.530;2023-07-13T15:33:13;23.74;53.86
73133;DHT22;61320;52.008;4.530;2023-07-13T15:35:39;23.78;53.65
73133;DHT22;61320;52.008;4.530;2023-07-13T15:38:18;23.75;52.61
73133;DHT22;61320;52.008;4.530;2023-07-13T15:40:44;23.60;52.79
73133;DHT22;61320;52.008;4.530;2023-07-13T15:43:11;23.50;53.46
73133;DHT22;61320;52.008;4.530;2023-07-13T15:45:38;23.49;53.91
73133;DHT22;61320;52.008;4.530;2023-07-13T15:50:54;23.51;54.44
73133;DHT22;61320;52.008;4.530;2023-07-13T15:53:24;23.71;54.41
73133;DHT22;61320;52.008;4.530;2023-07-13T15:55:51;23.82;52.92
73133;DHT22;61320;52.008;4.530;2023-07-13T15:58:18;23.81;53.88
73133;DHT22;61320;52.008;4.530;2023-07-13T16:00:44;23.85;54.35
73133;DHT22;61320;52.008;4.530;2023-07-13T16:03:10;23.88;53.35
73133;DHT22;61320;52.008;4.530;2023-07-13T16:05:37;23.82;53.48
73133;DHT22;61320;52.008;4.530;2023-07-13T16:08:05;23.79;54.36
73133;DHT22;61320;52.008;4.530;2023-07-13T16:10:35;23.91;53.39
73133;DHT22;61320;52.008;4.530;2023-07-13T16:13:03;23.82;53.76
73133;DHT22;61320;52.008;4.530;2023-07-13T16:15:30;23.75;53.81
73133;DHT22;61320;52.008;4.530;2023-07-13T16:17:56;23.71;52.77
73133;DHT22;61320;52.008;4.530;2023-07-13T16:20:23;23.56;52.86
73133;DHT22;61320;52.008;4.530;2023-07-13T16:22:53;23.53;53.95
73133;DHT22;61320;52.008;4.530;2023-07-13T16:25:23;23.57;53.44
73133;DHT22;61320;52.008;4.530;2023-07-13T16:27:50;23.57;53.56
73133;DHT22;61320;52.008;4.530;2023-07-13T16:30:17;23.56;53.99
73133;DHT22;61320;52.008;4.530;2023-07-13T16:32:55;23.53;53.34
73133;DHT22;61320;52.008;4.530;2023-07-13T16:35:24;23.43;53.09
73133;DHT22;61320;52.008;4.530;2023-07-13T16:37:51;23.26;53.63
73133;DHT22;61320;52.008;4.530;2023-07-13T16:40:26;23.18;54.84
73133;DHT22;61320;52.008;4.530;2023-07-13T16:42:54;23.13;54.61
73133;DHT22;61320;52.008;4.530;2023-07-13T16:45:21;23.00;53.90
73133;DHT22;61320;52.008;4.530;2023-07-13T16:47:50;22.81;55.29
73133;DHT22;61320;52.008;4.530;2023-07-13T16:50:21;22.79;56.01
73133;DHT22;61320;52.008;4.530;2023-07-13T16:52:49;22.75;55.79
73133;DHT22;61320;52.008;4.530;2023-07-13T16:57:44;22.60;56.92
73133;DHT22;61320;52.008;4.530;2023-07-13T17:00:23;22.51;57.02
73133;DHT22;61320;52.008;4.530;2023-07-13T17:02:58;22.50;57.22
73133;DHT22;61320;52.008;4.530;2023-07-13T17:05:28;22.47;56.48
73133;DHT22;61320;52.008;4.530;2023-07-13T17:07:54;22.47;56.43
73133;DHT22;61320;52.008;4.530;2023-07-13T17:10:21;22.44;55.21
73133;DHT22;61320;52.008;4.530;2023-07-13T17:12:54;22.30;55.48